Time,TemperatureF,DewpointF,PressureIn,WindDirection,WindDirectionDegrees,WindSpeedMPH,WindSpeedGustMPH,Humidity,HourlyPrecipIn,Conditions,Clouds,dailyrainin,SolarRadiationWatts/m^2,SoftwareType,DateUTC
2013-05-23 00:03:00,66.0,58.0,-100.00,South,179,6.0,12.0,75,0.00,,,0.00,0.000000,,2013-05-23 04:03:00,
2013-05-23 00:33:00,65.0,58.0,-100.00,South,189,6.0,10.0,77,0.00,,,0.00,0.000000,,2013-05-23 04:33:00,
2013-05-23 00:43:00,65.0,58.0,-100.00,South,189,6.0,10.0,77,0.00,,,0.00,0.000000,,2013-05-23 04:43:00,
2013-05-23 00:52:00,65.0,58.0,-100.00,South,189,6.0,10.0,77,0.00,,,0.00,0.000000,,2013-05-23 04:52:00,
2013-05-23 01:02:00,65.0,58.0,-100.00,South,189,6.0,10.0,77,0.00,,,0.00,0.000000,,2013-05-23 05:02:00,
2013-05-23 01:32:00,65.0,59.0,-100.00,South,186,5.0,11.0,80,0.00,,,0.00,0.000000,,2013-05-23 05:32:00,
2013-05-23 01:43:00,65.0,59.0,-100.00,South,186,5.0,11.0,80,0.00,,,0.00,0.000000,,2013-05-23 05:43:00,
2013-05-23 01:52:00,65.0,59.0,-100.00,South,186,5.0,11.0,80,0.00,,,0.00,0.000000,,2013-05-23 05:52:00,
2013-05-23 02:02:00,65.0,59.0,-100.00,South,186,5.0,11.0,80,0.00,,,0.00,0.000000,,2013-05-23 06:02:00,
2013-05-23 02:32:00,64.0,59.0,-100.00,SSW,195,5.0,10.0,83,0.00,,,0.00,0.000000,,2013-05-23 06:32:00,
2013-05-23 02:42:00,64.0,59.0,-100.00,SSW,195,5.0,10.0,83,0.00,,,0.00,0.000000,,2013-05-23 06:42:00,
2013-05-23 02:52:00,64.0,59.0,-100.00,SSW,195,5.0,10.0,83,0.00,,,0.00,0.000000,,2013-05-23 06:52:00,
2013-05-23 03:02:00,64.0,59.0,-100.00,SSW,195,5.0,10.0,83,0.00,,,0.00,0.000000,,2013-05-23 07:02:00,
2013-05-23 03:32:00,62.0,61.0,-100.00,SSW,205,7.0,13.0,95,0.24,,,0.24,0.000000,,2013-05-23 07:32:00,
2013-05-23 03:42:00,62.0,61.0,-100.00,SSW,205,7.0,13.0,95,0.24,,,0.24,0.000000,,2013-05-23 07:42:00,
2013-05-23 03:59:00,62.0,61.0,-100.00,SSW,205,7.0,13.0,95,0.24,,,0.24,0.000000,,2013-05-23 07:59:00,
2013-05-23 04:32:00,61.0,60.0,-100.00,SSW,193,5.0,8.0,97,0.12,,,0.36,0.000000,,2013-05-23 08:32:00,
2013-05-23 04:42:00,61.0,60.0,-100.00,SSW,193,5.0,8.0,97,0.12,,,0.36,0.000000,,2013-05-23 08:42:00,
2013-05-23 04:52:00,61.0,60.0,-100.00,SSW,193,5.0,8.0,97,0.12,,,0.36,0.000000,,2013-05-23 08:52:00,
2013-05-23 05:02:00,61.0,60.0,-100.00,SSW,193,5.0,8.0,97,0.12,,,0.36,0.000000,,2013-05-23 09:02:00,
2013-05-23 05:33:00,60.0,59.0,-100.00,SSW,199,3.0,5.0,97,0.00,,,0.36,0.000000,,2013-05-23 09:33:00,
2013-05-23 05:42:00,60.0,59.0,-100.00,SSW,199,3.0,5.0,97,0.00,,,0.36,0.000000,,2013-05-23 09:42:00,
2013-05-23 05:53:00,60.0,59.0,-100.00,SSW,199,3.0,5.0,97,0.00,,,0.36,0.000000,,2013-05-23 09:53:00,
2013-05-23 06:03:00,60.0,59.0,-100.00,SSW,199,3.0,5.0,97,0.00,,,0.36,0.000000,,2013-05-23 10:03:00,
2013-05-23 06:32:00,60.0,59.0,-100.00,SSW,206,5.0,9.0,97,0.01,,,0.37,0.000000,,2013-05-23 10:32:00,
2013-05-23 06:42:00,60.0,59.0,-100.00,SSW,206,5.0,9.0,97,0.01,,,0.37,0.000000,,2013-05-23 10:42:00,
2013-05-23 06:52:00,60.0,59.0,-100.00,SSW,206,5.0,9.0,97,0.01,,,0.37,0.000000,,2013-05-23 10:52:00,
2013-05-23 07:02:00,60.0,59.0,-100.00,SSW,206,5.0,9.0,97,0.01,,,0.37,0.000000,,2013-05-23 11:02:00,
2013-05-23 07:32:00,61.0,60.0,-100.00,SW,215,6.0,10.0,97,0.00,,,0.37,20.000000,,2013-05-23 11:32:00,
2013-05-23 07:42:00,61.0,60.0,-100.00,SW,215,6.0,10.0,97,0.00,,,0.37,20.000000,,2013-05-23 11:42:00,
2013-05-23 07:52:00,61.0,60.0,-100.00,SW,215,6.0,10.0,97,0.00,,,0.37,20.000000,,2013-05-23 11:52:00,
2013-05-23 08:01:00,61.0,60.0,-100.00,SW,215,6.0,10.0,97,0.00,,,0.37,20.000000,,2013-05-23 12:01:00,
2013-05-23 08:32:00,62.0,61.0,-100.00,SSW,209,5.0,10.0,96,0.00,,,0.37,56.000000,,2013-05-23 12:32:00,
2013-05-23 08:42:00,62.0,61.0,-100.00,SSW,209,5.0,10.0,96,0.00,,,0.37,56.000000,,2013-05-23 12:42:00,
2013-05-23 08:52:00,62.0,61.0,-100.00,SSW,209,5.0,10.0,96,0.00,,,0.37,56.000000,,2013-05-23 12:52:00,
2013-05-23 09:01:00,62.0,61.0,-100.00,SSW,209,5.0,10.0,96,0.00,,,0.37,56.000000,,2013-05-23 13:01:00,
2013-05-23 09:32:00,63.0,60.0,-100.00,SW,214,5.0,8.0,91,0.00,,,-99.99,147.000000,,2013-05-23 13:32:00,
2013-05-23 09:42:00,63.0,60.0,-100.00,SW,214,5.0,8.0,91,0.00,,,-99.99,147.000000,,2013-05-23 13:42:00,
2013-05-23 09:52:00,63.0,60.0,-100.00,SW,214,5.0,8.0,91,0.00,,,-99.99,147.000000,,2013-05-23 13:52:00,
2013-05-23 10:02:00,63.0,60.0,-100.00,SW,214,5.0,8.0,91,0.00,,,-99.99,147.000000,,2013-05-23 14:02:00,
2013-05-23 10:32:00,67.0,61.0,-100.00,SW,216,5.0,8.0,82,0.00,,,0.37,314.000000,,2013-05-23 14:32:00,
2013-05-23 10:42:00,67.0,61.0,-100.00,SW,216,5.0,8.0,82,0.00,,,0.37,314.000000,,2013-05-23 14:42:00,
2013-05-23 10:52:00,67.0,61.0,-100.00,SW,216,5.0,8.0,82,0.00,,,0.37,314.000000,,2013-05-23 14:52:00,
2013-05-23 11:01:00,67.0,61.0,-100.00,SW,216,5.0,8.0,82,0.00,,,0.37,314.000000,,2013-05-23 15:01:00,
2013-05-23 11:33:00,71.0,61.0,-100.00,SW,216,5.0,10.0,71,0.00,,,0.37,555.000000,,2013-05-23 15:33:00,
2013-05-23 11:43:00,71.0,61.0,-100.00,SW,216,5.0,10.0,71,0.00,,,0.37,555.000000,,2013-05-23 15:43:00,
2013-05-23 11:53:00,71.0,61.0,-100.00,SW,216,5.0,10.0,71,0.00,,,0.37,555.000000,,2013-05-23 15:53:00,
2013-05-23 12:03:00,71.0,61.0,-100.00,SW,216,5.0,10.0,71,0.00,,,0.37,555.000000,,2013-05-23 16:03:00,
2013-05-23 12:34:00,71.0,60.0,-100.00,SSW,207,5.0,13.0,68,0.00,,,0.37,699.000000,,2013-05-23 16:34:00,
2013-05-23 12:43:00,71.0,60.0,-100.00,SSW,207,5.0,13.0,68,0.00,,,0.37,699.000000,,2013-05-23 16:43:00,
2013-05-23 12:53:00,71.0,60.0,-100.00,SSW,207,5.0,13.0,68,0.00,,,0.37,699.000000,,2013-05-23 16:53:00,
2013-05-23 13:03:00,71.0,60.0,-100.00,SSW,207,5.0,13.0,68,0.00,,,0.37,699.000000,,2013-05-23 17:03:00,
2013-05-23 13:33:00,70.0,63.0,-100.00,SSW,198,4.0,7.0,78,0.00,,,0.37,405.000000,,2013-05-23 17:33:00,
2013-05-23 13:43:00,70.0,63.0,-100.00,SSW,198,4.0,7.0,78,0.00,,,0.37,405.000000,,2013-05-23 17:43:00,
2013-05-23 13:53:00,70.0,63.0,-100.00,SSW,198,4.0,7.0,78,0.00,,,0.37,405.000000,,2013-05-23 17:53:00,
2013-05-23 14:01:00,70.0,63.0,-100.00,SSW,198,4.0,7.0,78,0.00,,,0.37,405.000000,,2013-05-23 18:01:00,
2013-05-23 14:32:00,75.0,59.0,-100.00,SSW,210,7.0,14.0,57,0.00,,,0.37,992.000000,,2013-05-23 18:32:00,
2013-05-23 14:42:00,75.0,59.0,-100.00,SSW,210,7.0,14.0,57,0.00,,,0.37,992.000000,,2013-05-23 18:42:00,
2013-05-23 14:52:00,75.0,59.0,-100.00,SSW,210,7.0,14.0,57,0.00,,,0.37,992.000000,,2013-05-23 18:52:00,
2013-05-23 15:01:00,75.0,59.0,-100.00,SSW,210,7.0,14.0,57,0.00,,,0.37,992.000000,,2013-05-23 19:01:00,
2013-05-23 15:32:00,76.0,58.0,-100.00,SW,231,4.0,8.0,53,0.00,,,0.37,818.000000,,2013-05-23 19:32:00,
2013-05-23 15:42:00,76.0,58.0,-100.00,SW,231,4.0,8.0,53,0.00,,,0.37,818.000000,,2013-05-23 19:42:00,
2013-05-23 15:52:00,76.0,58.0,-100.00,SW,231,4.0,8.0,53,0.00,,,0.37,818.000000,,2013-05-23 19:52:00,
2013-05-23 16:02:00,76.0,58.0,-100.00,SW,231,4.0,8.0,53,0.00,,,0.37,818.000000,,2013-05-23 20:02:00,
2013-05-23 16:32:00,70.0,56.0,-100.00,SW,227,5.0,11.0,61,0.00,,,0.37,246.000000,,2013-05-23 20:32:00,
2013-05-23 16:42:00,70.0,56.0,-100.00,SW,227,5.0,11.0,61,0.00,,,0.37,246.000000,,2013-05-23 20:42:00,
2013-05-23 16:52:00,70.0,56.0,-100.00,SW,227,5.0,11.0,61,0.00,,,0.37,246.000000,,2013-05-23 20:52:00,
2013-05-23 17:01:00,70.0,56.0,-100.00,SW,227,5.0,11.0,61,0.00,,,0.37,246.000000,,2013-05-23 21:01:00,
2013-05-23 17:33:00,69.0,59.0,-100.00,SSW,195,6.0,13.0,71,0.00,,,0.37,327.000000,,2013-05-23 21:33:00,
2013-05-23 17:43:00,69.0,59.0,-100.00,SSW,195,6.0,13.0,71,0.00,,,0.37,327.000000,,2013-05-23 21:43:00,
2013-05-23 17:53:00,69.0,59.0,-100.00,SSW,195,6.0,13.0,71,0.00,,,0.37,327.000000,,2013-05-23 21:53:00,
2013-05-23 18:03:00,69.0,59.0,-100.00,SSW,195,6.0,13.0,71,0.00,,,0.37,327.000000,,2013-05-23 22:03:00,
2013-05-23 18:33:00,59.0,58.0,-100.00,West,269,2.0,3.0,97,0.36,,,-99.99,71.000000,,2013-05-23 22:33:00,
2013-05-23 18:42:00,59.0,58.0,-100.00,West,269,2.0,3.0,97,0.36,,,-99.99,71.000000,,2013-05-23 22:42:00,
2013-05-23 18:52:00,59.0,58.0,-100.00,West,269,2.0,3.0,97,0.36,,,-99.99,71.000000,,2013-05-23 22:52:00,
2013-05-23 19:02:00,59.0,58.0,-100.00,West,269,2.0,3.0,97,0.36,,,-99.99,71.000000,,2013-05-23 23:02:00,
2013-05-23 19:32:00,59.0,58.0,-100.00,NW,304,3.0,5.0,98,0.02,,,0.75,69.000000,,2013-05-23 23:32:00,
2013-05-23 19:42:00,59.0,58.0,-100.00,NW,304,3.0,5.0,98,0.02,,,0.75,69.000000,,2013-05-23 23:42:00,
2013-05-23 19:52:00,59.0,58.0,-100.00,NW,304,3.0,5.0,98,0.02,,,0.75,69.000000,,2013-05-23 23:52:00,
2013-05-23 20:01:00,59.0,58.0,-100.00,NW,304,3.0,5.0,98,0.02,,,0.75,69.000000,,2013-05-24 00:01:00,
2013-05-23 20:32:00,58.0,57.0,-100.00,WNW,291,0.0,1.0,97,0.06,,,0.81,16.000000,,2013-05-24 00:32:00,
2013-05-23 20:42:00,58.0,57.0,-100.00,WNW,291,0.0,1.0,97,0.06,,,0.81,16.000000,,2013-05-24 00:42:00,
2013-05-23 20:52:00,58.0,57.0,-100.00,WNW,291,0.0,1.0,97,0.06,,,0.81,16.000000,,2013-05-24 00:52:00,
2013-05-23 21:01:00,58.0,57.0,-100.00,WNW,291,0.0,1.0,97,0.06,,,0.81,16.000000,,2013-05-24 01:01:00,
2013-05-23 21:32:00,57.0,56.0,-100.00,SSE,166,0.0,0.0,98,0.01,,,0.82,10.000000,,2013-05-24 01:32:00,
2013-05-23 21:42:00,57.0,56.0,-100.00,SSE,166,0.0,0.0,98,0.01,,,0.82,10.000000,,2013-05-24 01:42:00,
2013-05-23 21:52:00,57.0,56.0,-100.00,SSE,166,0.0,0.0,98,0.01,,,0.82,10.000000,,2013-05-24 01:52:00,
2013-05-23 22:02:00,57.0,56.0,-100.00,SSE,166,0.0,0.0,98,0.01,,,0.82,10.000000,,2013-05-24 02:02:00,
2013-05-23 22:32:00,56.0,56.0,-100.00,NW,307,0.0,0.0,99,0.00,,,0.82,0.000000,,2013-05-24 02:32:00,
2013-05-23 22:42:00,56.0,56.0,-100.00,NW,307,0.0,0.0,99,0.00,,,0.82,0.000000,,2013-05-24 02:42:00,
2013-05-23 22:52:00,56.0,56.0,-100.00,NW,307,0.0,0.0,99,0.00,,,0.82,0.000000,,2013-05-24 02:52:00,
2013-05-23 23:02:00,56.0,56.0,-100.00,NW,307,0.0,0.0,99,0.00,,,0.82,0.000000,,2013-05-24 03:02:00,
2013-05-23 23:33:00,53.0,53.0,-100.00,WNW,286,6.0,11.0,99,0.00,,,0.82,0.000000,,2013-05-24 03:33:00,
2013-05-23 23:42:00,53.0,53.0,-100.00,WNW,286,6.0,11.0,99,0.00,,,0.82,0.000000,,2013-05-24 03:42:00,
2013-05-23 23:53:00,53.0,53.0,-100.00,WNW,286,6.0,11.0,99,0.00,,,0.82,0.000000,,2013-05-24 03:53:00,